Mc Gill, Nevada
Current Conditions -  °F | °C
As of 12:53 AM on Monday 22 Dec 2014 (Local Time) from KELY Reporting Station
Overcast Overcast  
Wind Chill: 45°   Ceiling: 2700
Heat Index: 45°   Visibility: 10mi
Dew Point: 37°   Wind: 0mph
Humidity: 74%   Direction: NA
Pressure: 30.17"   Gusts: NA
Location:  39.4053°N, 114.775°W
Report Text: KELY 220853Z AUTO 00000KT 10SM BKN027 OVC034 07/03 A3017 RMK AO2 RAE04 SLP172 P0000 60000 T00720028 58002
Loading
Personal Weather Stations






























Interactive Weather Map New forecast layout! Learn more

10-Day Weather Forecast

Advertisements
Track Severe Weather on mobile